Time;durP1;ratioP1;P1;durP2;ratioP2;P2;SDS_P1;SDS_P2;PMS_P1;PMS_P2;Temp;Humidity;BMP_temperature;BMP_pressure;BME280_temperature;BME280_humidity;BME280_pressure;Samples;Min_cycle;Max_cycle;Signal;HPM_P1;HPM_P2
2022/12/31 00:02:14;;;;;;;1.77;0.65;;;13.00;99.90;;;-144.05;82.59;125687.94;4996555;28;20057;-77
2022/12/31 00:04:40;;;;;;;1.30;0.70;;;13.10;99.90;;;-144.05;82.49;125687.94;4995530;28;20505;-78
2022/12/31 00:07:06;;;;;;;1.90;0.75;;;13.10;99.90;;;-144.05;81.77;125687.94;4996844;28;20088;-78
2022/12/31 00:09:32;;;;;;;1.05;0.73;;;13.10;99.90;;;-144.05;81.82;125687.94;4996062;28;20511;-78
2022/12/31 00:11:58;;;;;;;1.73;0.60;;;13.20;99.90;;;-144.05;81.25;125687.94;4996155;28;20149;-78
2022/12/31 00:14:26;;;;;;;1.48;0.70;;;13.30;99.90;;;-144.05;80.89;125687.94;4996018;28;20470;-78
2022/12/31 00:16:52;;;;;;;0.93;0.68;;;13.20;99.90;;;-144.05;81.14;125687.94;5004162;28;20035;-79
2022/12/31 00:19:18;;;;;;;0.63;0.60;;;13.20;99.90;;;-144.05;81.76;125687.94;4998532;28;20042;-77
2022/12/31 00:21:43;;;;;;;1.48;0.60;;;13.20;99.90;;;-144.05;82.18;125687.94;4997132;28;20039;-77
2022/12/31 00:24:11;;;;;;;2.00;0.60;;;13.20;99.90;;;-144.05;82.55;125687.94;4996263;28;20426;-78
2022/12/31 00:26:38;;;;;;;1.20;0.70;;;13.10;99.90;;;-144.05;83.09;125687.94;4994944;28;20053;-78
2022/12/31 00:29:05;;;;;;;1.00;0.70;;;13.10;99.90;;;-144.05;83.64;125687.94;4995020;28;20106;-78
2022/12/31 00:31:36;;;;;;;2.22;0.68;;;13.10;99.90;;;-144.05;83.40;125687.94;4994834;28;20401;-79
2022/12/31 00:34:04;;;;;;;0.98;0.60;;;13.00;99.90;;;-144.05;83.79;125687.94;4995351;28;20068;-79
2022/12/31 00:36:36;;;;;;;1.52;0.65;;;13.10;99.90;;;-144.05;83.54;125687.94;4995145;28;20030;-78
2022/12/31 00:39:06;;;;;;;0.75;0.70;;;13.00;99.90;;;-144.05;83.86;125687.94;5010134;28;20030;-78
2022/12/31 00:41:32;;;;;;;0.90;0.68;;;13.10;99.90;;;-144.05;84.85;125687.94;4993840;28;20034;-79
2022/12/31 00:43:59;;;;;;;0.88;0.77;;;13.00;99.90;;;-144.05;85.23;125687.94;5010290;28;20536;-78
2022/12/31 00:46:26;;;;;;;0.82;0.60;;;12.90;99.90;;;-144.05;85.91;125687.94;4995319;28;20065;-78
2022/12/31 00:48:52;;;;;;;0.43;0.38;;;12.90;99.90;;;-144.05;85.74;125687.94;4995049;28;20093;-79
2022/12/31 00:51:23;;;;;;;0.90;0.60;;;12.80;99.90;;;-144.05;86.37;125687.94;4995190;28;20478;-78
2022/12/31 00:53:49;;;;;;;0.63;0.50;;;12.80;99.90;;;-144.05;87.30;125687.94;4994209;28;20030;-80
2022/12/31 00:56:20;;;;;;;1.23;0.70;;;12.80;99.90;;;-144.05;87.18;125687.94;4999296;28;20538;-78
2022/12/31 00:58:47;;;;;;;1.40;0.50;;;12.70;99.90;;;-144.05;87.27;125687.94;4997743;28;20030;-78
2022/12/31 01:01:28;;;;;;;0.47;0.40;;;12.70;99.90;;;-144.05;88.25;125687.94;4995170;28;20065;-76
2022/12/31 01:04:13;;;;;;;2.15;1.05;;;12.60;99.90;;;-144.05;88.17;125687.94;4995520;28;20030;-79
2022/12/31 01:06:42;;;;;;;1.02;0.60;;;12.60;99.90;;;-144.05;88.28;125687.94;4994676;28;20036;-77
2022/12/31 01:09:11;;;;;;;0.80;0.60;;;12.60;99.90;;;-144.05;88.68;125687.94;4995476;28;20053;-79
2022/12/31 01:11:37;;;;;;;2.53;0.75;;;12.50;99.90;;;-144.05;88.36;125687.94;4995771;28;20042;-79
2022/12/31 01:14:14;;;;;;;0.93;0.68;;;12.50;99.90;;;-144.05;88.49;125687.94;4994532;28;20050;-79
2022/12/31 01:16:51;;;;;;;2.08;0.70;;;12.50;99.90;;;-144.05;88.48;125687.94;4995053;28;20085;-78
2022/12/31 01:19:24;;;;;;;1.67;0.70;;;12.50;99.90;;;-144.05;88.26;125687.94;4995518;28;20022;-79
2022/12/31 01:21:51;;;;;;;0.73;0.60;;;12.40;99.90;;;-144.05;88.40;125687.94;4995314;28;20054;-81
2022/12/31 01:24:18;;;;;;;0.60;0.60;;;12.40;99.90;;;-144.05;88.38;125687.94;4995584;28;20068;-78
2022/12/31 01:26:45;;;;;;;1.58;0.70;;;12.50;99.90;;;-144.05;88.36;125687.94;5010461;28;20030;-79
2022/12/31 01:29:13;;;;;;;1.67;0.50;;;12.50;99.90;;;-144.05;88.69;125687.94;4994808;28;20033;-77
2022/12/31 01:31:39;;;;;;;0.75;0.40;;;12.60;99.90;;;-144.05;88.12;125687.94;4993730;28;20516;-78
2022/12/31 01:34:07;;;;;;;0.45;0.40;;;12.60;99.90;;;-144.05;87.50;125687.94;4994752;28;20101;-78
2022/12/31 01:36:36;;;;;;;0.50;0.50;;;12.70;99.90;;;-144.05;86.40;125687.94;4994631;28;20022;-78
2022/12/31 01:39:06;;;;;;;0.40;0.30;;;12.80;99.90;;;-144.05;86.07;125687.94;4993050;28;20022;-79
2022/12/31 01:41:39;;;;;;;0.32;0.32;;;12.90;99.90;;;-144.05;85.85;125687.94;4994186;28;20114;-79
2022/12/31 01:44:11;;;;;;;0.95;0.30;;;13.10;99.90;;;-144.05;85.81;125687.94;4994401;28;20038;-77
2022/12/31 01:46:43;;;;;;;1.67;0.40;;;13.10;99.90;;;-144.05;85.29;125687.94;5009323;28;20039;-78
2022/12/31 01:49:35;;;;;;;0.60;0.40;;;13.20;99.90;;;-144.05;86.05;125687.94;4994398;28;20034;-78
2022/12/31 01:52:37;;;;;;;0.75;0.30;;;13.30;99.90;;;-144.05;86.50;125687.94;4993822;28;20046;-79
2022/12/31 01:55:45;;;;;;;0.65;0.20;;;13.30;99.90;;;-144.05;86.83;125687.94;4992606;28;20030;-80
2022/12/31 01:58:24;;;;;;;0.77;0.20;;;13.30;99.90;;;-144.05;87.81;125687.94;4990502;28;20113;-79
2022/12/31 02:00:52;;;;;;;0.25;0.25;;;13.30;99.90;;;-144.05;87.60;125687.94;4992542;28;20030;-80
2022/12/31 02:03:23;;;;;;;0.50;0.30;;;13.20;99.90;;;-144.05;88.21;125687.94;4992104;28;20026;-79
2022/12/31 02:06:07;;;;;;;0.32;0.25;;;13.20;99.90;;;-144.05;88.45;125687.94;4992321;28;20036;-77
2022/12/31 02:08:35;;;;;;;0.30;0.28;;;13.20;99.90;;;-144.05;87.88;125687.94;4993150;28;20135;-78
2022/12/31 02:11:01;;;;;;;1.73;0.30;;;13.20;99.90;;;-144.05;87.75;125687.94;4993178;28;20560;-78
2022/12/31 02:13:27;;;;;;;0.10;0.10;;;13.20;99.90;;;-144.05;87.37;125687.94;4993397;28;20030;-77
2022/12/31 02:16:09;;;;;;;0.10;0.10;;;13.30;99.90;;;-144.05;87.07;125687.94;4993409;28;20113;-79
2022/12/31 02:19:04;;;;;;;1.73;0.30;;;13.30;99.90;;;-144.05;86.92;125687.94;4993282;28;20034;-80
2022/12/31 02:21:59;;;;;;;1.25;0.40;;;13.30;99.90;;;-144.05;87.05;125687.94;4993273;28;20033;-79
2022/12/31 02:25:07;;;;;;;0.85;0.28;;;13.40;99.90;;;-144.05;87.20;125687.94;4993458;28;20116;-77
2022/12/31 02:28:13;;;;;;;0.25;0.13;;;13.50;99.90;;;-144.05;87.11;125687.94;4993682;28;20034;-79
2022/12/31 02:30:44;;;;;;;0.20;0.20;;;13.50;99.90;;;-144.05;86.54;125687.94;4992234;28;20022;-79
2022/12/31 02:33:35;;;;;;;0.65;0.10;;;13.60;99.90;;;-144.05;85.81;125687.94;4998191;28;20478;-77
2022/12/31 02:36:21;;;;;;;0.20;0.13;;;13.70;99.90;;;-144.05;85.32;125687.94;5000491;28;20105;-78
2022/12/31 02:38:49;;;;;;;0.10;0.10;;;13.80;99.90;;;-144.05;83.91;125687.94;4999233;28;20050;-78
2022/12/31 02:44:32;;;;;;;0.20;0.20;;;14.00;99.90;;;-144.05;82.11;125687.94;4993800;28;20543;-79
2022/12/31 02:47:04;;;;;;;0.30;0.10;;;14.00;99.90;;;-144.05;81.34;125687.94;5032715;23;20117;-78
2022/12/31 02:50:03;;;;;;;0.20;0.20;;;14.10;99.90;;;-144.05;80.83;125687.94;5013735;28;20026;-78
2022/12/31 02:53:09;;;;;;;0.30;0.28;;;14.20;99.90;;;-144.05;80.31;125687.94;5012705;28;20034;-78
2022/12/31 02:56:03;;;;;;;0.20;0.10;;;14.40;99.90;;;-144.05;80.20;125687.94;5019629;28;20497;-78
2022/12/31 03:04:35;;;;;;;0.20;0.10;;;14.40;99.90;;;-144.05;81.10;125687.94;5036127;28;20031;-78
2022/12/31 03:07:25;;;;;;;0.10;0.10;;;14.40;99.90;;;-144.05;81.44;125687.94;5034494;28;20037;-78
2022/12/31 03:09:52;;;;;;;0.45;0.10;;;14.40;99.90;;;-144.05;81.73;125687.94;5034831;28;20037;-77
2022/12/31 03:15:20;;;;;;;0.10;0.10;;;14.40;99.90;;;-144.05;82.79;125687.94;5035274;28;20053;-78
2022/12/31 03:17:57;;;;;;;0.47;0.10;;;14.40;99.90;;;-144.05;83.01;125687.94;5035424;28;20034;-77
2022/12/31 03:23:30;;;;;;;0.43;0.20;;;14.30;99.90;;;-144.05;82.56;125687.94;5035214;28;20055;-78
2022/12/31 03:25:58;;;;;;;1.52;0.20;;;14.40;99.90;;;-144.05;82.54;125687.94;5036137;28;20044;-78
2022/12/31 03:28:29;;;;;;;1.55;0.35;;;14.30;99.90;;;-144.05;81.95;125687.94;5034430;28;20076;-77
2022/12/31 03:31:02;;;;;;;0.10;0.10;;;14.40;99.90;;;-144.05;82.61;125687.94;5034412;28;20034;-78
2022/12/31 03:33:36;;;;;;;0.20;0.20;;;14.30;99.90;;;-144.05;82.65;125687.94;5034286;28;20021;-78
2022/12/31 03:36:13;;;;;;;2.83;0.50;;;14.30;99.90;;;-144.05;83.17;125687.94;5049889;28;20096;-77
2022/12/31 03:38:40;;;;;;;0.20;0.20;;;14.30;99.90;;;-144.05;83.19;125687.94;5034823;28;20032;-77
2022/12/31 03:41:10;;;;;;;0.63;0.30;;;14.30;99.90;;;-144.05;83.51;125687.94;5039134;28;20025;-78
2022/12/31 03:43:37;;;;;;;0.35;0.20;;;14.30;99.90;;;-144.05;83.60;125687.94;5037206;28;20060;-79
2022/12/31 03:46:03;;;;;;;2.00;0.38;;;14.30;99.90;;;-144.05;83.22;125687.94;5036921;28;20116;-78
2022/12/31 03:48:28;;;;;;;0.28;0.20;;;14.30;99.90;;;-144.05;82.60;125687.94;5036193;28;20064;-75
2022/12/31 03:50:54;;;;;;;0.40;0.13;;;14.40;99.90;;;-144.05;82.57;125687.94;5037579;28;20064;-78
2022/12/31 03:53:20;;;;;;;1.30;0.55;;;14.40;99.90;;;-144.05;82.27;125687.94;5054929;28;20029;-77
2022/12/31 03:55:52;;;;;;;1.27;0.30;;;14.40;99.90;;;-144.05;81.62;125687.94;5037493;28;20026;-77
2022/12/31 03:58:19;;;;;;;0.45;0.20;;;14.40;99.90;;;-144.05;81.05;125687.94;5037447;28;20104;-76
2022/12/31 04:00:45;;;;;;;4.05;0.40;;;14.50;99.90;;;-144.05;80.52;125687.94;5037288;28;20112;-78
2022/12/31 04:03:11;;;;;;;0.30;0.20;;;14.60;99.90;;;-144.05;79.35;125687.94;5037253;28;20087;-77
2022/12/31 04:05:36;;;;;;;3.25;0.50;;;14.80;99.90;;;-144.05;79.02;125687.94;5036360;28;20112;-78
2022/12/31 04:08:02;;;;;;;1.65;0.35;;;14.90;99.90;;;-144.05;78.52;125687.94;5038050;28;20117;-78
2022/12/31 04:10:28;;;;;;;0.40;0.38;;;14.90;99.90;;;-144.05;78.11;125687.94;5036375;28;20269;-77
2022/12/31 04:12:54;;;;;;;1.90;0.25;;;15.10;99.90;;;-144.05;78.46;125687.94;5035254;28;20029;-77
2022/12/31 04:15:20;;;;;;;1.98;0.30;;;15.20;99.90;;;-144.05;77.67;125687.94;5035618;28;20026;-78
2022/12/31 04:17:47;;;;;;;2.47;0.30;;;15.10;99.90;;;-144.05;76.66;125687.94;5036400;28;20052;-77
2022/12/31 04:20:15;;;;;;;0.35;0.20;;;15.20;99.90;;;-144.05;76.44;125687.94;5036342;28;20388;-77
2022/12/31 04:22:41;;;;;;;0.28;0.22;;;15.30;99.90;;;-144.05;76.59;125687.94;5038044;28;20065;-76
2022/12/31 04:25:10;;;;;;;1.00;0.20;;;15.30;99.90;;;-144.05;75.31;125687.94;5037674;28;20033;-77
2022/12/31 04:27:42;;;;;;;0.38;0.30;;;15.40;99.90;;;-144.05;75.15;125687.94;5037531;28;20092;-78
2022/12/31 04:30:11;;;;;;;3.42;0.50;;;15.40;99.90;;;-144.05;74.60;125687.94;5037702;28;20029;-79
2022/12/31 04:32:36;;;;;;;1.85;0.30;;;15.50;99.90;;;-144.05;74.63;125687.94;5036886;28;20556;-77
2022/12/31 04:35:03;;;;;;;0.30;0.20;;;15.50;99.90;;;-144.05;74.11;125687.94;5035967;28;20053;-79
2022/12/31 04:37:29;;;;;;;1.20;0.10;;;15.50;99.90;;;-144.05;74.07;125687.94;5036125;28;20022;-78
2022/12/31 04:39:55;;;;;;;0.20;0.10;;;15.60;99.90;;;-144.05;74.38;125687.94;5035562;28;20388;-76
2022/12/31 04:42:20;;;;;;;0.20;0.10;;;15.50;99.90;;;-144.05;75.27;125687.94;5036238;28;20416;-77
2022/12/31 04:44:46;;;;;;;0.95;0.10;;;15.50;99.90;;;-144.05;76.79;125687.94;5034559;28;20080;-78
2022/12/31 04:47:12;;;;;;;0.35;0.10;;;15.40;99.90;;;-144.05;77.62;125687.94;5037542;28;20041;-78
2022/12/31 04:49:38;;;;;;;0.22;0.10;;;15.20;99.90;;;-144.05;78.08;125687.94;5036875;28;20036;-78
2022/12/31 04:52:04;;;;;;;0.28;0.10;;;15.10;99.90;;;-144.05;77.64;125687.94;5035373;28;20474;-78
2022/12/31 04:54:30;;;;;;;0.75;0.40;;;15.20;99.90;;;-144.05;77.02;125687.94;5036664;28;20021;-76
2022/12/31 04:56:55;;;;;;;1.75;0.30;;;15.20;99.90;;;-144.05;76.66;125687.94;5035147;28;20022;-77
2022/12/31 04:59:21;;;;;;;2.95;0.40;;;15.30;99.90;;;-144.05;75.67;125687.94;5035812;28;20384;-77
2022/12/31 05:01:47;;;;;;;1.67;0.13;;;15.40;99.90;;;-144.05;75.06;125687.94;5034835;28;20112;-78
2022/12/31 05:04:13;;;;;;;0.80;0.10;;;15.50;99.90;;;-144.05;74.41;125687.94;5033635;28;20052;-76
2022/12/31 05:06:39;;;;;;;0.57;0.20;;;15.60;99.90;;;-144.05;73.49;125687.94;5032909;28;20033;-78
2022/12/31 05:09:04;;;;;;;0.65;0.20;;;15.70;99.90;;;-144.05;72.95;125687.94;5034232;28;20029;-78
2022/12/31 05:11:30;;;;;;;0.22;0.20;;;15.70;99.90;;;-144.05;72.63;125687.94;5034988;28;20092;-77
2022/12/31 05:13:56;;;;;;;1.10;0.45;;;15.80;99.90;;;-144.05;72.04;125687.94;5034232;28;20058;-77
2022/12/31 05:16:22;;;;;;;1.48;0.20;;;15.80;99.90;;;-144.05;71.09;125687.94;5033084;28;20040;-79
2022/12/31 05:18:48;;;;;;;0.52;0.13;;;15.80;99.90;;;-144.05;71.20;125687.94;5033050;28;20025;-78
2022/12/31 05:21:20;;;;;;;0.38;0.20;;;15.90;99.90;;;-144.05;71.06;125687.94;5033789;28;20093;-78
2022/12/31 05:23:47;;;;;;;1.15;0.35;;;15.90;99.90;;;-144.05;70.71;125687.94;5034538;28;20044;-77
2022/12/31 05:26:14;;;;;;;3.83;0.30;;;16.00;99.90;;;-144.05;70.31;125687.94;5034992;28;20025;-76
2022/12/31 05:28:40;;;;;;;0.35;0.22;;;16.10;99.90;;;-144.05;70.25;125687.94;5034652;28;20515;-78
2022/12/31 05:31:06;;;;;;;0.77;0.15;;;16.10;99.90;;;-144.05;69.34;125687.94;5033824;28;20026;-77
2022/12/31 05:33:32;;;;;;;0.20;0.20;;;16.10;99.90;;;-144.05;69.65;125687.94;5034216;28;20033;-78
2022/12/31 05:35:58;;;;;;;1.00;0.22;;;16.20;99.90;;;-144.05;69.24;125687.94;5034194;28;20036;-78
2022/12/31 05:38:25;;;;;;;2.25;0.30;;;16.30;99.90;;;-144.05;69.18;125687.94;5033290;28;20026;-77
2022/12/31 05:41:04;;;;;;;1.42;0.40;;;16.20;99.90;;;-144.05;68.91;125687.94;5032402;28;21142;-78
2022/12/31 05:43:32;;;;;;;2.85;0.45;;;16.40;99.90;;;-144.05;68.12;125687.94;5033663;28;20029;-76
2022/12/31 05:46:03;;;;;;;1.27;0.32;;;16.60;99.90;;;-144.05;67.71;125687.94;5033468;28;20182;-78
2022/12/31 05:48:30;;;;;;;2.53;0.40;;;16.50;99.90;;;-144.05;67.85;125687.94;5031898;28;20040;-76
2022/12/31 05:50:56;;;;;;;2.35;0.50;;;16.50;99.90;;;-144.05;67.86;125687.94;5033257;28;20139;-78
2022/12/31 05:53:22;;;;;;;1.05;0.43;;;16.50;99.90;;;-144.05;67.83;125687.94;5031690;28;20060;-77
2022/12/31 05:55:48;;;;;;;1.15;0.50;;;16.50;99.90;;;-144.05;68.08;125687.94;5033074;28;20026;-77
2022/12/31 05:58:15;;;;;;;2.53;0.40;;;16.50;99.90;;;-144.05;67.07;125687.94;5033368;28;20025;-77
2022/12/31 06:00:43;;;;;;;2.10;0.30;;;16.60;99.90;;;-144.05;66.98;125687.94;5031654;28;20025;-77
2022/12/31 06:03:09;;;;;;;0.75;0.20;;;16.50;99.90;;;-144.05;66.87;125687.94;5032604;28;20030;-77
2022/12/31 06:05:41;;;;;;;1.60;0.15;;;16.60;99.90;;;-144.05;67.02;125687.94;5033179;28;20120;-78
2022/12/31 06:08:09;;;;;;;2.13;0.30;;;16.60;99.90;;;-144.05;66.31;125687.94;5032811;28;20040;-79
2022/12/31 06:10:35;;;;;;;1.85;0.55;;;16.70;99.90;;;-144.05;66.30;125687.94;5032637;28;20112;-77
2022/12/31 06:13:01;;;;;;;1.25;0.30;;;16.70;99.90;;;-144.05;67.13;125687.94;5034003;28;20076;-78
2022/12/31 06:15:27;;;;;;;1.13;0.47;;;16.70;99.90;;;-144.05;66.27;125687.94;5032246;28;20024;-76
2022/12/31 06:17:53;;;;;;;1.17;0.20;;;16.70;99.90;;;-144.05;66.35;125687.94;5032245;28;20029;-78
2022/12/31 06:20:18;;;;;;;5.93;0.30;;;16.60;99.90;;;-144.05;66.20;125687.94;5032617;28;20025;-77
2022/12/31 06:22:44;;;;;;;4.43;0.40;;;16.70;99.90;;;-144.05;65.96;125687.94;5033608;28;20492;-76
2022/12/31 06:25:11;;;;;;;1.80;0.40;;;16.60;99.90;;;-144.05;66.25;125687.94;5032815;28;20060;-76
2022/12/31 06:27:37;;;;;;;1.02;0.40;;;16.60;99.90;;;-144.05;65.90;125687.94;5033081;28;20033;-76
2022/12/31 06:30:03;;;;;;;1.83;0.35;;;16.60;99.90;;;-144.05;66.05;125687.94;5032122;28;20107;-75
2022/12/31 06:32:29;;;;;;;4.55;0.70;;;16.60;99.90;;;-144.05;66.00;125687.94;5032405;28;20025;-78
2022/12/31 06:34:55;;;;;;;1.00;0.52;;;16.70;99.90;;;-144.05;66.17;125687.94;5033374;28;20160;-78
2022/12/31 06:37:21;;;;;;;2.28;0.40;;;16.60;99.90;;;-144.05;66.27;125687.94;5033190;28;20048;-77
2022/12/31 06:39:47;;;;;;;2.58;0.40;;;16.60;99.90;;;-144.05;66.31;125687.94;5032913;28;20045;-77
2022/12/31 06:42:13;;;;;;;3.65;0.52;;;16.70;99.90;;;-144.05;66.33;125687.94;5033332;28;20025;-78
2022/12/31 06:44:39;;;;;;;1.10;0.30;;;16.70;99.90;;;-144.05;66.33;125687.94;5033490;28;20055;-77
2022/12/31 06:47:05;;;;;;;2.38;0.30;;;16.70;99.90;;;-144.05;66.67;125687.94;5031169;28;20080;-78
2022/12/31 06:49:31;;;;;;;1.73;0.50;;;16.60;99.90;;;-144.05;66.59;125687.94;5032654;28;20116;-77
2022/12/31 06:51:56;;;;;;;2.75;0.35;;;16.60;99.90;;;-144.05;67.07;125687.94;5032020;28;20528;-78
2022/12/31 06:54:22;;;;;;;6.88;0.80;;;16.70;99.90;;;-144.05;67.04;125687.94;5032304;28;20037;-78
2022/12/31 06:56:48;;;;;;;2.85;0.45;;;16.70;99.90;;;-144.05;67.04;125687.94;5032617;28;20072;-76
2022/12/31 06:59:28;;;;;;;2.45;0.57;;;16.70;99.90;;;-144.05;67.26;125687.94;5030808;28;20025;-78
2022/12/31 07:02:47;;;;;;;0.70;0.45;;;16.60;99.90;;;-144.05;66.99;125687.94;5030832;28;20427;-76
2022/12/31 07:05:51;;;;;;;3.75;0.50;;;16.60;99.90;;;-144.05;66.64;125687.94;5031518;28;20550;-78
2022/12/31 07:08:42;;;;;;;4.10;0.60;;;16.60;99.90;;;-144.05;66.34;125687.94;5030922;28;20037;-77
2022/12/31 07:11:25;;;;;;;2.25;0.60;;;16.60;99.90;;;-144.05;66.26;125687.94;5031867;28;20034;-76
2022/12/31 07:14:19;;;;;;;3.05;0.40;;;16.70;99.90;;;-144.05;66.66;125687.94;5033332;28;20412;-78
2022/12/31 07:17:54;;;;;;;1.58;0.77;;;16.60;99.90;;;-144.05;66.55;125687.94;5034922;28;20071;-77
2022/12/31 07:20:21;;;;;;;1.27;0.40;;;16.70;99.90;;;-144.05;66.60;125687.94;5036440;28;20025;-77
2022/12/31 07:22:47;;;;;;;6.45;0.38;;;16.80;99.90;;;-144.05;66.26;125687.94;5036129;28;20025;-76
2022/12/31 07:25:19;;;;;;;1.65;0.40;;;16.70;99.90;;;-144.05;66.38;125687.94;5034724;28;20029;-77
2022/12/31 07:28:07;;;;;;;1.73;0.40;;;16.80;99.90;;;-144.05;66.13;125687.94;5036152;28;20377;-77
2022/12/31 07:30:58;;;;;;;2.65;0.50;;;16.80;99.90;;;-144.05;65.65;125687.94;5035556;28;20400;-77
2022/12/31 07:33:58;;;;;;;1.60;0.38;;;16.80;99.90;;;-144.05;65.44;125687.94;5034283;28;20029;-77
2022/12/31 07:37:06;;;;;;;1.75;0.47;;;16.90;99.90;;;-144.05;65.38;125687.94;5036134;28;20570;-78
2022/12/31 07:40:19;;;;;;;1.80;0.50;;;16.90;99.90;;;-144.05;64.94;125687.94;5034858;28;20063;-75
2022/12/31 07:43:39;;;;;;;2.05;0.60;;;16.90;99.90;;;-144.05;64.66;125687.94;5034271;28;20025;-76
2022/12/31 07:46:23;;;;;;;2.15;0.50;;;16.90;99.90;;;-144.05;64.85;125687.94;5044123;28;20535;-78
2022/12/31 07:48:50;;;;;;;3.67;0.40;;;16.90;99.90;;;-144.05;64.92;125687.94;5035031;28;20044;-77
2022/12/31 07:51:16;;;;;;;1.00;0.50;;;16.90;99.90;;;-144.05;64.48;125687.94;5035235;28;20435;-77
2022/12/31 07:53:42;;;;;;;1.35;0.40;;;17.00;99.90;;;-144.05;64.32;125687.94;5035263;28;20100;-78
2022/12/31 07:56:09;;;;;;;4.40;0.57;;;17.10;99.90;;;-144.05;64.01;125687.94;5034939;28;20029;-77
2022/12/31 07:59:35;;;;;;;1.20;0.40;;;17.10;99.90;;;-144.05;64.31;125687.94;5035095;28;20029;-78
2022/12/31 08:02:48;;;;;;;2.13;0.80;;;17.10;99.90;;;-144.05;64.74;125687.94;5045635;28;20025;-76
2022/12/31 08:05:59;;;;;;;2.58;0.63;;;17.00;99.90;;;-144.05;64.62;125687.94;5038662;28;20100;-74
2022/12/31 08:09:02;;;;;;;2.55;0.65;;;17.00;99.90;;;-144.05;64.55;125687.94;5056317;28;20048;-75
2022/12/31 08:11:54;;;;;;;2.58;0.60;;;17.00;99.90;;;-144.05;64.46;125687.94;5056156;28;20041;-74
2022/12/31 08:14:20;;;;;;;3.47;0.65;;;17.00;99.90;;;-144.05;64.42;125687.94;5055427;28;20118;-75
2022/12/31 08:16:47;;;;;;;2.47;0.40;;;17.00;99.90;;;-144.05;63.86;125687.94;5049283;28;20083;-77
2022/12/31 08:19:25;;;;;;;2.63;0.45;;;17.10;99.90;;;-144.05;63.73;125687.94;5045342;28;20061;-75
2022/12/31 08:22:44;;;;;;;4.75;0.60;;;17.10;99.90;;;-144.05;63.38;125687.94;5037487;28;20077;-77
2022/12/31 08:25:33;;;;;;;4.38;0.60;;;17.10;99.90;;;-144.05;63.18;125687.94;5035461;28;20026;-76
2022/12/31 08:28:55;;;;;;;5.22;0.60;;;17.20;99.90;;;-144.05;62.73;125687.94;5034839;28;20026;-76
2022/12/31 08:31:56;;;;;;;2.45;0.50;;;17.20;99.90;;;-144.05;62.58;125687.94;5023299;28;20064;-78
2022/12/31 08:35:02;;;;;;;5.97;0.70;;;17.20;99.90;;;-144.05;62.82;125687.94;5033726;28;20029;-77
2022/12/31 08:37:39;;;;;;;1.75;0.55;;;17.20;99.90;;;-144.05;62.17;125687.94;5034110;28;20171;-77
2022/12/31 08:41:12;;;;;;;4.88;0.82;;;17.20;99.90;;;-144.05;61.95;125687.94;5033176;28;20120;-79
2022/12/31 08:43:56;;;;;;;1.75;0.45;;;17.30;99.90;;;-144.05;61.79;125687.94;5034185;28;20052;-78
2022/12/31 08:46:43;;;;;;;2.15;0.40;;;17.30;99.90;;;-144.05;61.85;125687.94;5032699;28;20349;-74
2022/12/31 08:49:10;;;;;;;3.03;0.50;;;17.30;99.90;;;-144.05;61.30;125687.94;5034300;28;20030;-75
2022/12/31 08:51:36;;;;;;;1.67;0.50;;;17.30;99.90;;;-144.05;61.47;125687.94;5032122;28;20116;-77
2022/12/31 08:54:03;;;;;;;1.67;0.70;;;17.40;99.90;;;-144.05;61.43;125687.94;5033694;28;20038;-77
2022/12/31 08:56:48;;;;;;;1.83;0.50;;;17.40;99.90;;;-144.05;61.06;125687.94;5034451;28;20029;-77
2022/12/31 08:59:36;;;;;;;2.70;0.50;;;17.40;99.90;;;-144.05;61.33;125687.94;5032992;28;20033;-77
2022/12/31 09:02:51;;;;;;;2.22;0.80;;;17.30;99.90;;;-144.05;60.97;125687.94;5034047;28;20034;-76
2022/12/31 09:06:04;;;;;;;2.92;0.40;;;17.30;99.90;;;-144.05;61.28;125687.94;5034772;28;20085;-77
2022/12/31 09:09:23;;;;;;;1.40;0.50;;;17.40;99.90;;;-144.05;61.37;125687.94;5034470;28;20346;-76
2022/12/31 09:12:33;;;;;;;2.05;0.55;;;17.40;99.90;;;-144.05;61.01;125687.94;5036261;28;20033;-75
2022/12/31 09:15:37;;;;;;;3.20;0.60;;;17.40;99.90;;;-144.05;60.96;125687.94;5036615;28;20033;-77
2022/12/31 09:18:03;;;;;;;1.02;0.50;;;17.40;99.90;;;-144.05;60.85;125687.94;5033809;28;20033;-77
2022/12/31 09:20:33;;;;;;;1.38;0.40;;;17.30;99.90;;;-144.05;61.25;125687.94;5034861;28;20029;-78
2022/12/31 09:23:01;;;;;;;1.92;0.68;;;17.40;99.90;;;-144.05;61.38;125687.94;5034176;28;20095;-78
2022/12/31 09:25:29;;;;;;;3.20;0.55;;;17.30;99.90;;;-144.05;60.96;125687.94;5035715;28;20129;-78
2022/12/31 09:28:16;;;;;;;2.17;0.70;;;17.40;99.90;;;-144.05;60.64;125687.94;5036938;28;20124;-78
2022/12/31 09:31:04;;;;;;;2.55;0.60;;;17.40;99.90;;;-144.05;60.37;125687.94;5038949;28;20030;-78
2022/12/31 09:34:03;;;;;;;2.35;0.65;;;17.40;99.90;;;-144.05;60.37;125687.94;5036539;28;20029;-77
2022/12/31 09:36:43;;;;;;;2.10;0.50;;;17.50;99.90;;;-144.05;60.37;125687.94;5034335;28;20406;-75
2022/12/31 09:39:42;;;;;;;0.93;0.50;;;17.50;99.90;;;-144.05;60.55;125687.94;5033678;28;20481;-78
2022/12/31 09:42:29;;;;;;;2.22;0.80;;;17.40;99.90;;;-144.05;60.37;125687.94;5034783;28;20041;-77
2022/12/31 09:45:50;;;;;;;1.85;0.77;;;17.50;99.90;;;-144.05;60.32;125687.94;5033144;28;20102;-77
2022/12/31 09:48:44;;;;;;;1.30;0.60;;;17.50;99.90;;;-144.05;60.38;125687.94;5034046;28;20122;-76
2022/12/31 09:51:31;;;;;;;3.67;1.08;;;17.50;99.90;;;-144.05;60.64;125687.94;5034339;28;20029;-77
2022/12/31 09:54:35;;;;;;;4.32;0.60;;;17.50;99.90;;;-144.05;60.46;125687.94;5033011;28;20037;-76
2022/12/31 09:57:39;;;;;;;4.57;0.82;;;17.50;99.90;;;-144.05;60.80;125687.94;5033887;28;20040;-76
2022/12/31 10:00:54;;;;;;;2.10;0.73;;;17.60;99.90;;;-144.05;60.60;125687.94;5036733;28;20033;-78
2022/12/31 10:04:11;;;;;;;1.63;0.65;;;17.50;99.90;;;-144.05;60.96;125687.94;5036238;28;20083;-78
2022/12/31 10:07:31;;;;;;;3.07;0.70;;;17.40;99.90;;;-144.05;61.02;125687.94;5037382;28;20025;-77
2022/12/31 10:10:27;;;;;;;2.47;0.57;;;17.40;99.90;;;-144.05;60.91;125687.94;5036389;28;20291;-77
2022/12/31 10:13:27;;;;;;;;;;;17.30;99.90;;;-144.05;61.13;125687.94;5038447;28;20048;-78
2022/12/31 10:16:31;;;;;;;1.83;0.68;;;17.30;99.90;;;-144.05;61.53;125687.94;5033401;28;19912;-76
2022/12/31 10:19:51;;;;;;;2.22;0.73;;;17.30;99.90;;;-144.05;61.18;125687.94;5036829;28;20034;-78
2022/12/31 10:23:13;;;;;;;3.10;0.70;;;17.30;99.90;;;-144.05;61.04;125687.94;5051269;28;20037;-78
2022/12/31 10:26:37;;;;;;;3.35;0.93;;;17.30;99.90;;;-144.05;60.55;125687.94;5034174;28;20385;-76
2022/12/31 10:29:23;;;;;;;2.72;0.65;;;17.40;99.90;;;-144.05;60.39;125687.94;5033944;28;20117;-77
2022/12/31 10:32:16;;;;;;;4.05;0.90;;;17.40;99.90;;;-144.05;60.59;125687.94;5035625;28;20089;-78
2022/12/31 10:35:25;;;;;;;6.07;1.38;;;17.40;99.90;;;-144.05;60.35;125687.94;5036198;28;20034;-79
2022/12/31 10:38:31;;;;;;;4.05;0.80;;;17.50;99.90;;;-144.05;60.04;125687.94;5037690;28;20091;-77
2022/12/31 10:41:24;;;;;;;1.75;0.70;;;17.60;99.90;;;-144.05;59.71;125687.94;5036072;28;20060;-79
2022/12/31 10:44:53;;;;;;;1.55;0.85;;;17.60;99.90;;;-144.05;59.75;125687.94;5034510;28;20193;-77
2022/12/31 10:48:21;;;;;;;2.70;0.90;;;17.70;99.90;;;-144.05;59.58;125687.94;5034061;28;20033;-78
2022/12/31 10:51:22;;;;;;;5.63;0.98;;;17.80;99.90;;;-144.05;59.68;125687.94;5037750;28;20111;-77
2022/12/31 10:54:30;;;;;;;3.58;1.20;;;17.70;99.90;;;-144.05;59.30;125687.94;5038027;28;20048;-76
2022/12/31 10:57:44;;;;;;;3.75;1.00;;;17.70;99.90;;;-144.05;59.85;125687.94;5037015;28;20072;-76
2022/12/31 11:00:17;;;;;;;2.85;0.65;;;17.70;99.90;;;-144.05;59.65;125687.94;5039981;28;20045;-77
2022/12/31 11:03:20;;;;;;;5.50;1.35;;;17.70;99.90;;;-144.05;59.89;125687.94;5039520;28;20075;-77
2022/12/31 11:06:35;;;;;;;4.75;0.85;;;17.70;99.90;;;-144.05;59.79;125687.94;5040679;28;20025;-78